Flight Track Log - Related Links

Times and Time Zones

All times are in EDT time to prevent confusion due to time zone crossing. See the N662US flight status page for this flight to view local times or setup timezone preferences in your user account.

Time Position Orientation Groundspeed Altitude Reporting Facility
EDT Latitude Longitude Course Direction KTS MPH feet Rate Location/Type
Mon 07:53:00 AM 35.7425 140.2498 259° West  Level Estimated
Mon 07:54:00 AM 35.7202 140.1133 259° West  Level Estimated
Mon 07:55:00 AM 35.6977 139.9769 259° West  Level Estimated
Mon 07:55:17 AM 35.6910 140.4280 258° West 181 208 3,800  Level FlightAware ADS-B
Mon 07:56:00 AM 35.6750 139.8406 258° West  Level Estimated
Mon 07:56:02 AM 35.6520 140.4560 150° Southeast 242 278 4,700  Level FlightAware ADS-B
Mon 07:56:25 AM 35.6320 140.4710 149° Southeast 263 303 5,200 2,400 Climbing FlightAware ADS-B
Mon 07:56:57 AM 35.5940 140.4980 150° Southeast 276 318 6,900 3,103 Climbing FlightAware ADS-B
Mon 07:57:23 AM 35.5650 140.5180 151° Southeast 282 325 8,200 2,700 Climbing FlightAware ADS-B
Mon 07:57:37 AM 35.5500 140.5230 165° South 285 328 8,700 2,615 Climbing FlightAware ADS-B
Mon 07:58:02 AM 35.5200 140.5120 197° South 287 330 9,900 2,618 Climbing FlightAware ADS-B
Mon 07:58:32 AM 35.5020 140.4670 244° Southwest 301 346 11,100 2,237 Climbing FlightAware ADS-B
Mon 07:59:01 AM 35.5180 140.4120 290° West 340 391 12,100 2,045 Climbing FlightAware ADS-B
Mon 07:59:16 AM 35.5370 140.3930 321° Northwest 356 410 12,600 2,073 Climbing FlightAware ADS-B
Mon 07:59:56 AM 35.6030 140.3580 337° Northwest 400 460 14,000 2,682 Climbing FlightAware ADS-B
Mon 08:00:41 AM 35.6820 140.3180 338° Northwest 401 461 16,400 2,965 Climbing FlightAware ADS-B
Mon 08:01:21 AM 35.7480 140.2740 332° Northwest 410 472 18,200 2,836 Climbing FlightAware ADS-B
Mon 08:01:36 AM 35.7650 140.2460 307° West 407 468 19,000 2,727 Climbing FlightAware ADS-B
Mon 08:02:16 AM 35.7850 140.1560 285° West 418 481 20,700 2,400 Climbing FlightAware ADS-B
Mon 08:03:01 AM 35.7760 140.0480 264° West 432 497 22,400 2,329 Climbing FlightAware ADS-B
Mon 08:03:41 AM 35.7660 139.9500 263° West 437 503 24,000 2,329 Climbing FlightAware ADS-B
Mon 08:04:26 AM 35.7540 139.8350 263° West 445 512 25,700 2,047 Climbing FlightAware ADS-B
Mon 08:05:06 AM 35.7410 139.7360 261° West 455 524 26,900 1,875 Climbing FlightAware ADS-B
Mon 08:05:46 AM 35.7280 139.6300 261° West 462 532 28,200 1,624 Climbing FlightAware ADS-B
Mon 08:06:31 AM 35.7150 139.5350 260° West 473 544 29,200 1,624 Climbing FlightAware ADS-B
Mon 08:07:11 AM 35.6990 139.4050 261° West 480 552 30,500 2,329 Climbing FlightAware ADS-B
Mon 08:07:56 AM 35.6830 139.2860 261° West 468 539 32,500 2,188 Climbing FlightAware ADS-B
Mon 08:08:36 AM 35.6700 139.1800 261° West 468 539 33,600 1,694 Climbing FlightAware ADS-B
Mon 08:09:21 AM 35.6550 139.0640 261° West 466 536 34,900 1,674 Climbing FlightAware ADS-B
Mon 08:10:02 AM 35.6400 138.9580 260° West 461 531 36,000 776 Climbing FlightAware ADS-B
Mon 08:10:46 AM 35.6250 138.8410 261° West 459 528 36,000  Level FlightAware ADS-B
Mon 08:11:43 AM 35.6080 138.7150 261° West 459 528 36,000  Level FlightAware ADS-B
Mon 08:12:24 AM 35.5900 138.5850 260° West 458 527 36,000  Level FlightAware ADS-B
Mon 08:13:05 AM 35.5780 138.4920 261° West 457 526 36,000  Level FlightAware ADS-B
Mon 08:13:49 AM 35.5610 138.3690 260° West 458 527 36,000 72 Level FlightAware ADS-B
Mon 08:14:28 AM 35.5470 138.2720 260° West 460 529 36,100 759 Climbing FlightAware ADS-B
Mon 08:15:08 AM 35.5330 138.1690 261° West 459 528 37,000 1,200 Climbing FlightAware ADS-B
Mon 08:15:53 AM 35.5170 138.0560 260° West 456 525 37,800 667 Climbing FlightAware ADS-B
Mon 08:16:38 AM 35.5010 137.9380 261° West 456 525 38,000 141 Climbing FlightAware ADS-B
Mon 08:17:18 AM 35.4870 137.8410 260° West 454 522 38,000  Level FlightAware ADS-B
Mon 08:18:00 AM 35.4720 137.7350 260° West 451 519 38,000  Level FlightAware ADS-B
Mon 08:18:43 AM 35.4560 137.6240 260° West 450 518 38,000  Level FlightAware ADS-B
Mon 08:19:23 AM 35.4410 137.5200 260° West 450 518 38,000  Level FlightAware ADS-B
Mon 08:20:08 AM 35.4240 137.4050 260° West 447 514 38,000  Level FlightAware ADS-B
Mon 08:20:48 AM 35.4100 137.3080 260° West 450 518 38,000  Level FlightAware ADS-B
Mon 08:21:30 AM 35.3950 137.2070 260° West 450 518 38,000  Level FlightAware ADS-B
Mon 08:22:13 AM 35.3780 137.0940 260° West 450 518 38,000  Level FlightAware ADS-B
Mon 08:22:53 AM 35.3630 136.9940 260° West 451 519 38,000  Level FlightAware ADS-B
Mon 08:23:40 AM 35.3500 136.9060 260° West 452 520 38,000  Level FlightAware ADS-B
Mon 08:24:18 AM 35.3310 136.7800 260° West 452 520 38,000  Level FlightAware ADS-B
Mon 08:25:03 AM 35.3140 136.6700 259° West 454 522 38,000  Level FlightAware ADS-B
Mon 08:25:43 AM 35.2980 136.5680 259° West 455 524 38,000  Level FlightAware ADS-B
Mon 08:26:23 AM 35.2830 136.4670 260° West 457 526 38,000  Level FlightAware ADS-B
Mon 08:27:10 AM 35.2650 136.3520 259° West 461 531 38,000  Level FlightAware ADS-B
Mon 08:27:48 AM 35.2480 136.2470 259° West 462 532 38,000  Level FlightAware ADS-B
Mon 08:28:28 AM 35.2330 136.1450 260° West 461 531 38,000  Level FlightAware ADS-B
Mon 08:29:13 AM 35.2160 136.0290 260° West 460 529 38,000  Level FlightAware ADS-B
Mon 08:29:54 AM 35.2010 135.9270 260° West 461 531 38,000  Level FlightAware ADS-B
Mon 08:30:38 AM 35.1840 135.8110 260° West 461 531 38,000  Level FlightAware ADS-B
Mon 08:31:19 AM 35.1680 135.7090 259° West 460 529 38,000  Level FlightAware ADS-B
Mon 08:31:58 AM 35.1500 135.6070 258° West 462 532 38,000  Level FlightAware ADS-B
Mon 08:32:38 AM 35.1320 135.5050 258° West 462 532 38,000  Level FlightAware ADS-B
Mon 08:33:23 AM 35.1130 135.3920 258° West 464 534 38,000  Level FlightAware ADS-B
Mon 08:34:10 AM 35.1000 135.3120 259° West 466 536 38,000  Level FlightAware ADS-B
Mon 08:34:48 AM 35.0750 135.1710 258° West 466 536 38,000  Level FlightAware ADS-B
Mon 08:35:31 AM 35.0580 135.0720 258° West 467 537 38,000  Level FlightAware ADS-B
Mon 08:36:12 AM 35.0370 134.9520 258° West 467 537 38,000  Level FlightAware ADS-B
Mon 08:36:52 AM 35.0190 134.8490 258° West 466 536 38,000  Level FlightAware ADS-B
Mon 08:37:32 AM 35.0020 134.7510 258° West 465 535 38,000  Level FlightAware ADS-B
Mon 08:38:17 AM 34.9820 134.6420 257° West 464 534 38,000  Level FlightAware ADS-B
Mon 08:39:00 AM 34.9610 134.5380 256° West 462 532 38,000  Level FlightAware ADS-B
Mon 08:39:42 AM 34.9380 134.4220 256° West 460 529 38,000  Level FlightAware ADS-B
Mon 08:40:37 AM 34.9110 134.2860 256° West 459 528 38,000  Level FlightAware ADS-B
Mon 08:41:18 AM 34.8890 134.1760 256° West 460 529 38,000  Level FlightAware ADS-B
Mon 08:42:44 AM 34.8610 134.0350 256° West 458 527 38,000  Level FlightAware ADS-B
Mon 08:43:41 AM 34.8170 133.8210 256° West 463 533 38,000  Level FlightAware ADS-B
Mon 08:44:21 AM 34.7970 133.7250 256° West 465 535 38,000  Level FlightAware ADS-B
Mon 08:45:02 AM 34.7760 133.6260 256° West 466 536 38,000  Level FlightAware ADS-B
Mon 08:45:43 AM 34.7590 133.5470 255° West 466 536 38,000  Level FlightAware ADS-B
Mon 08:46:27 AM 34.7270 133.3970 255° West 467 537 38,000  Level FlightAware ADS-B
Mon 08:47:08 AM 34.7050 133.2930 256° West 469 540 38,000  Level FlightAware ADS-B
Mon 08:47:54 AM 34.6790 133.1760 255° West 470 541 38,000  Level FlightAware ADS-B
Mon 08:48:33 AM 34.6570 133.0710 256° West 472 543 38,000  Level FlightAware ADS-B
Mon 08:49:18 AM 34.6320 132.9590 255° West 470 541 38,000  Level FlightAware ADS-B
Mon 08:50:14 AM 34.6010 132.8240 254° West 469 540 38,000  Level FlightAware ADS-B
Mon 08:51:09 AM 34.5490 132.6830 246° West 477 549 38,000  Level FlightAware ADS-B
Mon 08:51:49 AM 34.5140 132.5880 246° West 475 547 38,000  Level FlightAware ADS-B
Mon 08:52:19 AM 34.4880 132.5110 248° West 475 547 38,000  Level FlightAware ADS-B
Mon 08:53:04 AM 34.4510 132.4080 246° West 479 551 38,000  Level FlightAware ADS-B
Mon 08:53:44 AM 34.4120 132.3020 246° West 481 554 38,000  Level FlightAware ADS-B
Mon 08:54:25 AM 34.3750 132.2060 245° Southwest 481 554 38,000  Level FlightAware ADS-B
Mon 08:55:09 AM 34.3340 132.0950 246° West 485 558 38,000  Level FlightAware ADS-B
Mon 08:55:49 AM 34.2960 131.9950 245° Southwest 487 560 38,000  Level FlightAware ADS-B
Mon 08:56:34 AM 34.2550 131.8850 246° West 489 563 38,000  Level FlightAware ADS-B
Mon 08:57:14 AM 34.2160 131.7830 245° Southwest 489 563 38,000  Level FlightAware ADS-B
Mon 08:57:55 AM 34.1780 131.6830 245° Southwest 489 563 38,000  Level FlightAware ADS-B
Mon 08:58:39 AM 34.1350 131.5700 245° Southwest 489 563 38,000  Level FlightAware ADS-B
Mon 08:59:19 AM 34.0980 131.4700 246° West 490 564 38,000  Level FlightAware ADS-B
Mon 09:00:04 AM 34.0530 131.3560 245° Southwest 494 568 38,000  Level FlightAware ADS-B
Mon 09:00:44 AM 34.0150 131.2580 245° Southwest 494 568 38,000  Level FlightAware ADS-B
Mon 09:01:29 AM 33.9720 131.1440 246° West 493 567 38,000  Level FlightAware ADS-B
Mon 09:02:09 AM 33.9340 131.0470 245° Southwest 493 567 38,000  Level FlightAware ADS-B
Mon 09:02:49 AM 33.8960 130.9490 245° Southwest 494 568 38,000  Level FlightAware ADS-B
Mon 09:03:34 AM 33.8510 130.8350 245° Southwest 494 568 38,000  Level FlightAware ADS-B
Mon 09:04:14 AM 33.8120 130.7350 245° Southwest 496 571 38,000  Level FlightAware ADS-B
Mon 09:04:59 AM 33.7690 130.6260 245° Southwest 496 571 38,000  Level FlightAware ADS-B
Mon 09:05:37 AM 33.7290 130.5240 245° Southwest 496 571 38,000  Level FlightAware ADS-B
Mon 09:06:17 AM 33.6900 130.4270 244° Southwest 496 571 38,000  Level FlightAware ADS-B
Mon 09:07:02 AM 33.6340 130.3220 237° Southwest 499 574 38,000  Level FlightAware ADS-B
Mon 09:07:47 AM 33.5690 130.2210 232° Southwest 505 581 38,000  Level FlightAware ADS-B
Mon 09:08:22 AM 33.5200 130.1430 233° Southwest 506 582 38,000  Level FlightAware ADS-B
Mon 09:09:26 AM 33.4700 129.9780 250° West 494 568 38,000  Level FlightAware ADS-B
Mon 09:10:14 AM 33.4330 129.8590 250° West 500 575 38,000  Level FlightAware ADS-B
Mon 09:10:55 AM 33.4010 129.7610 249° West 500 575 38,000  Level FlightAware ADS-B
Mon 09:11:43 AM 33.3580 129.6330 248° West 502 578 38,000  Level FlightAware ADS-B
Mon 09:12:25 AM 33.3220 129.5250 248° West 501 577 38,000  Level FlightAware ADS-B
Mon 09:13:09 AM 33.2850 129.4030 250° West 498 573 38,000  Level FlightAware ADS-B
Mon 09:13:49 AM 33.2550 129.3040 250° West 497 572 38,000  Level FlightAware ADS-B
Mon 09:14:24 AM 33.2260 129.2080 250° West 495 570 38,000  Level FlightAware ADS-B
Mon 09:15:17 AM 33.1940 129.1050 250° West 495 570 38,000  Level FlightAware ADS-B
Mon 09:15:54 AM 33.1690 129.0250 250° West 495 570 38,000  Level FlightAware ADS-B
Mon 09:16:30 AM 33.1450 128.9460 250° West 495 570 38,000  Level FlightAware ADS-B
Mon 09:17:17 AM 33.1140 128.8430 250° West 495 570 38,000  Level FlightAware ADS-B
Mon 09:18:06 AM 33.0810 128.7360 250° West 495 570 38,000  Level FlightAware ADS-B
Mon 09:18:42 AM 33.0570 128.6580 250° West 495 570 38,000  Level FlightAware ADS-B
Mon 09:19:19 AM 33.0330 128.5770 251° West 495 570 38,000  Level FlightAware ADS-B
Mon 09:20:08 AM 33.0000 128.4700 250° West 495 570 38,000  Level FlightAware ADS-B
Mon 09:20:54 AM 32.9700 128.3700 250° West 495 570 38,000  Level FlightAware ADS-B
Mon 09:21:32 AM 32.9440 128.2870 250° West 495 570 38,000  Level FlightAware ADS-B
Mon 09:22:08 AM 32.9200 128.2090 250° West 495 570 38,000  Level FlightAware ADS-B
Mon 09:22:57 AM 32.8880 128.1020 250° West 495 570 38,000  Level FlightAware ADS-B
Mon 09:23:33 AM 32.8640 128.0230 250° West 495 570 38,000  Level FlightAware ADS-B
Mon 09:24:21 AM 32.8320 127.9190 250° West 495 570 38,000 -871 Level FlightAware ADS-B
Mon 09:26:00 AM 32.7731 127.6812 254° West  Level Estimated
Mon 09:27:00 AM 32.7371 127.5373 254° West  Level Estimated
Mon 09:28:00 AM 32.7010 127.3935 253° West  Level Estimated
Mon 09:29:00 AM 32.6647 127.2497 253° West  Level Estimated
Mon 09:30:00 AM 32.6283 127.1061 253° West  Level Estimated
Mon 09:31:00 AM 32.5917 126.9627 253° West  Level Estimated
Mon 09:32:00 AM 32.5550 126.8193 253° West  Level Estimated
Mon 09:33:00 AM 32.5192 126.6804 253° West  Level Estimated
Mon 09:34:00 AM 32.4832 126.5416 253° West  Level Estimated
Mon 09:35:00 AM 32.4471 126.4029 253° West  Level Estimated
Mon 09:36:00 AM 32.4109 126.2644 253° West  Level Estimated
Mon 09:37:00 AM 32.3745 126.1259 253° West  Level Estimated
Mon 09:38:00 AM 32.3379 125.9876 253° West  Level Estimated
Mon 09:39:00 AM 32.3012 125.8493 253° West  Level Estimated
Mon 09:40:00 AM 32.2643 125.7112 253° West  Level Estimated
Mon 09:41:00 AM 32.2273 125.5732 252° West  Level Estimated
Mon 09:42:00 AM 32.1902 125.4353 252° West  Level Estimated
Mon 09:43:00 AM 32.1528 125.2975 252° West  Level Estimated
Mon 09:44:00 AM 32.1154 125.1598 252° West  Level Estimated
Mon 09:45:00 AM 32.0778 125.0223 252° West  Level Estimated
Mon 09:46:00 AM 32.0400 124.8848 252° West  Level Estimated
Mon 09:47:00 AM 32.0021 124.7475 252° West  Level Estimated
Mon 09:48:00 AM 31.9641 124.6103 252° West  Level Estimated
Mon 09:49:00 AM 31.9259 124.4732 252° West  Level Estimated
Mon 09:50:00 AM 31.8875 124.3362 252° West  Level Estimated
Mon 09:51:00 AM 31.8490 124.1993 252° West  Level Estimated
Mon 09:52:00 AM 31.8104 124.0625 252° West  Level Estimated
Mon 09:53:00 AM 31.7716 123.9259 252° West  Level Estimated
Mon 09:54:00 AM 31.7327 123.7894 251° West  Level Estimated
Mon 09:55:00 AM 31.6936 123.6529 251° West  Level Estimated
Mon 09:56:00 AM 31.6544 123.5166 251° West  Level Estimated
Mon 09:57:00 AM 31.6150 123.3804 251° West  Level Estimated
Mon 09:58:00 AM 31.5755 123.2444 251° West  Level Estimated
Mon 09:59:00 AM 31.5359 123.1084 251° West  Level Estimated
Mon 10:00:00 AM 31.4960 122.9726 251° West  Level Estimated
Mon 10:01:00 AM 31.4561 122.8368 251° West  Level Estimated
Mon 10:02:00 AM 31.4160 122.7012 251° West  Level Estimated
Mon 10:03:00 AM 31.3758 122.5657 251° West  Level Estimated
Mon 10:03:04 AM 31.3760 122.0300 251° West 255 293 3,600  Level FlightAware ADS-B
Mon 10:03:14 AM 31.3760 122.0190 270° West 254 292 3,400 -800 Descending FlightAware ADS-B
Mon 10:04:04 AM 31.3730 121.9510 267° West 253 291 2,800 -706 Descending FlightAware ADS-B
Mon 10:04:39 AM 31.3620 121.9060 254° West 203 234 2,400 -471 Descending FlightAware ADS-B
Mon 10:04:55 AM 31.3570 121.8930 246° West 186 214 2,400  Level FlightAware ADS-B
Mon 10:05:31 AM 31.3470 121.8640 248° West 186 214 2,400  Level FlightAware ADS-B
Mon 10:05:59 AM 31.3380 121.8350 250° West 174 200 2,400  Level FlightAware ADS-B
Mon 10:06:27 AM 31.3310 121.8140 249° West 174 200 2,400  Level FlightAware ADS-B
Mon 10:07:38 AM 31.2950 121.7670 228° Southwest 163 188 2,400  Level FlightAware ADS-B
Mon 10:07:54 AM 31.2820 121.7660 184° South 178 205 2,400 -295 Level FlightAware ADS-B
Mon 10:08:39 AM 31.2450 121.7790 163° South 152 175 2,100 -565 Descending FlightAware ADS-B
Mon 10:09:19 AM 31.2200 121.7890 161° South 139 160 1,600 -780 Descending FlightAware ADS-B
Mon 10:10:19 AM 31.1800 121.8030 163° South 135 155 800 -545 Descending FlightAware ADS-B
Mon 10:10:47 AM 31.1660 121.8090 160° South 135 155 800  Level FlightAware ADS-B

Login

Don't have an account? Register now (free) for customized features, flight alerts, and more!